Time;durP1;ratioP1;P1;durP2;ratioP2;P2;SDS_P1;SDS_P2;PMS_P1;PMS_P2;Temp;Humidity;BMP_temperature;BMP_pressure;BME280_temperature;BME280_humidity;BME280_pressure;Samples;Min_cycle;Max_cycle;Signal;HPM_P1;HPM_P2
2022/05/18 00:01:30;;;;;;;;;4.00;4.00;;;;;25.64;46.95;101139.81;5058944;28;45357;-52
2022/05/18 00:03:56;;;;;;;;;5.00;5.00;;;;;25.70;46.95;101155.44;5058741;28;45634;-53
2022/05/18 00:06:21;;;;;;;;;3.50;3.50;;;;;25.54;47.13;101141.66;5044407;28;46424;-54
2022/05/18 00:08:47;;;;;;;;;5.50;4.75;;;;;25.62;47.30;101161.75;5038568;28;45452;-49
2022/05/18 00:11:14;;;;;;;;;4.25;4.25;;;;;25.54;47.82;101155.69;5037986;28;45269;-53
2022/05/18 00:13:42;;;;;;;;;3.40;3.40;;;;;25.54;47.43;101169.75;5037231;28;45624;-50
2022/05/18 00:16:08;;;;;;;;;4.20;4.00;;;;;25.55;47.48;101170.56;5036951;28;46145;-50
2022/05/18 00:18:34;;;;;;;;;4.50;3.50;;;;;25.55;47.59;101167.75;5036805;28;45517;-51
2022/05/18 00:21:00;;;;;;;;;6.00;5.00;;;;;25.49;47.77;101161.34;5038428;28;45238;-53
2022/05/18 00:23:26;;;;;;;;;7.20;5.80;;;;;25.44;48.23;101175.47;5038323;28;45414;-53
2022/05/18 00:25:52;;;;;;;;;9.60;5.00;;;;;25.38;48.09;101177.53;5038044;28;46085;-51
2022/05/18 00:28:17;;;;;;;;;5.75;4.75;;;;;25.34;48.33;101179.25;5036408;28;45292;-51
2022/05/18 00:30:43;;;;;;;;;4.75;4.75;;;;;25.24;48.88;101183.03;5041813;28;45961;-51
2022/05/18 00:33:09;;;;;;;;;6.00;4.75;;;;;25.22;49.25;101190.09;5058424;28;45309;-52
2022/05/18 00:35:35;;;;;;;;;4.80;4.80;;;;;25.20;49.08;101193.22;5057671;28;45325;-49
2022/05/18 00:38:00;;;;;;;;;4.00;4.00;;;;;25.16;49.53;101195.81;5056717;28;45309;-52
2022/05/18 00:40:26;;;;;;;;;6.25;6.25;;;;;25.10;49.50;101182.09;5058139;28;45709;-53
2022/05/18 00:42:51;;;;;;;;;4.50;4.50;;;;;25.08;49.88;101209.66;5057140;28;45535;-48
2022/05/18 00:45:17;;;;;;;;;6.50;6.50;;;;;25.00;50.46;101194.31;5057664;28;45296;-50
2022/05/18 00:47:42;;;;;;;;;4.75;4.75;;;;;25.00;50.66;101194.31;5056373;28;45348;-53
2022/05/18 00:50:11;;;;;;;;;6.75;6.00;;;;;24.99;50.54;101199.09;5058179;28;45362;-56
2022/05/18 00:52:44;;;;;;;;;5.80;5.80;;;;;24.86;50.74;101186.59;5058191;28;45380;-55
2022/05/18 00:55:11;;;;;;;;;5.80;4.60;;;;;24.95;50.92;101200.81;5056788;28;46119;-50
2022/05/18 00:57:45;;;;;;;;;5.40;5.40;;;;;24.80;50.89;101178.53;5057376;28;45514;-52
2022/05/18 01:00:13;;;;;;;;;7.00;6.00;;;;;24.75;51.05;101174.63;5040329;28;45506;-49
2022/05/18 01:02:40;;;;;;;;;7.00;7.00;;;;;24.89;51.18;101210.44;5057850;28;45549;-52
2022/05/18 01:05:08;;;;;;;;;11.20;6.80;;;;;24.85;51.63;101215.81;5039739;28;45293;-52
2022/05/18 01:07:37;;;;;;;;;5.00;5.00;;;;;24.55;52.24;101181.28;5055897;28;45590;-50
2022/05/18 01:10:03;;;;;;;;;8.00;8.00;;;;;24.69;52.24;101214.25;5056250;28;45609;-51
2022/05/18 01:12:28;;;;;;;;;5.40;5.40;;;;;24.63;52.50;101213.50;5057630;28;45341;-52
2022/05/18 01:14:58;;;;;;;;;5.75;5.00;;;;;24.61;52.58;101224.19;5056990;28;45821;-55
2022/05/18 01:17:26;;;;;;;;;5.40;5.40;;;;;24.59;52.52;101220.84;5057302;28;45761;-47
2022/05/18 01:19:53;;;;;;;;;5.20;4.40;;;;;24.52;52.80;101211.91;5055950;28;45354;-48
2022/05/18 01:22:27;;;;;;;;;5.80;5.80;;;;;24.33;52.86;101190.22;5057866;28;45294;-49
2022/05/18 01:25:11;;;;;;;;;6.40;6.40;;;;;24.47;53.31;101216.47;5056883;28;45617;-49
2022/05/18 01:27:37;;;;;;;;;7.40;5.80;;;;;24.44;52.68;101216.22;5057158;28;45408;-55
2022/05/18 01:30:03;;;;;;;;;5.00;5.00;;;;;24.43;53.33;101214.53;5057332;28;45404;-51
2022/05/18 01:32:38;;;;;;;;;7.40;7.40;;;;;24.32;52.86;101217.44;5056404;28;45327;-53
2022/05/18 01:35:04;;;;;;;;;5.40;5.40;;;;;24.36;52.91;101229.75;5055557;28;45351;-50
2022/05/18 01:37:29;;;;;;;;;8.00;8.00;;;;;24.38;52.83;101239.81;5057222;28;45408;-53
2022/05/18 01:39:58;;;;;;;;;6.00;6.00;;;;;24.33;53.25;101233.13;5056713;28;45348;-55
2022/05/18 01:42:31;;;;;;;;;5.60;5.60;;;;;24.32;53.50;101236.22;5057382;28;45317;-53
2022/05/18 01:44:56;;;;;;;;;8.00;6.80;;;;;24.32;53.79;101237.06;5055518;28;45834;-52
2022/05/18 01:47:22;;;;;;;;;4.00;4.00;;;;;24.03;53.74;101201.38;5057093;28;45321;-53
2022/05/18 01:49:47;;;;;;;;;6.00;6.00;;;;;24.15;53.97;101228.22;5055693;28;45370;-54
2022/05/18 01:52:13;;;;;;;;;5.50;5.25;;;;;24.09;53.92;101219.88;5055644;28;45425;-53
2022/05/18 01:54:43;;;;;;;;;8.00;5.25;;;;;24.19;53.72;101237.72;5055502;28;45496;-50
2022/05/18 01:57:09;;;;;;;;;6.80;5.20;;;;;24.19;53.80;101247.00;5056890;28;45385;-53
2022/05/18 01:59:35;;;;;;;;;6.00;6.00;;;;;24.17;54.54;101240.81;5056366;28;45380;-50
2022/05/18 02:02:01;;;;;;;;;6.00;6.00;;;;;24.09;54.70;101239.50;5032525;28;45367;-51
2022/05/18 02:04:26;;;;;;;;;5.25;5.25;;;;;24.09;54.65;101238.66;5054784;28;45716;-51
2022/05/18 02:06:52;;;;;;;;;7.00;7.00;;;;;24.05;54.97;101249.59;5056327;28;45171;-52
2022/05/18 02:09:19;;;;;;;;;7.00;4.75;;;;;24.02;54.58;101252.13;5055659;28;45212;-48
2022/05/18 02:11:45;;;;;;;;;4.80;4.00;;;;;23.84;55.07;101248.88;5056594;28;45441;-52
2022/05/18 02:14:10;;;;;;;;;8.25;5.50;;;;;23.96;54.94;101263.38;5055990;28;45521;-53
2022/05/18 02:16:36;;;;;;;;;5.25;3.50;;;;;23.92;54.92;101267.91;5055989;28;45598;-54
2022/05/18 02:19:02;;;;;;;;;6.00;6.00;;;;;23.67;54.81;101229.66;5056256;28;45427;-55
2022/05/18 02:21:28;;;;;;;;;7.50;6.25;;;;;23.81;55.29;101266.28;5055280;28;45551;-52
2022/05/18 02:23:53;;;;;;;;;5.00;5.00;;;;;23.82;55.12;101277.22;5037798;28;46115;-48
2022/05/18 02:26:19;;;;;;;;;7.00;7.00;;;;;23.73;55.76;101269.69;5055989;28;45380;-50
2022/05/18 02:28:45;;;;;;;;;6.60;5.80;;;;;23.26;55.83;101209.09;5055856;28;45372;-52
2022/05/18 02:31:11;;;;;;;;;5.50;5.50;;;;;23.73;55.40;101280.91;5056427;28;45487;-54
2022/05/18 02:33:37;;;;;;;;;6.60;5.60;;;;;23.66;55.57;101292.41;5056103;28;45434;-51
2022/05/18 02:36:03;;;;;;;;;3.50;3.50;;;;;23.53;55.54;101283.50;5056041;28;45382;-51
2022/05/18 02:38:28;;;;;;;;;5.80;4.80;;;;;23.55;55.86;101291.63;5054679;28;45290;-53
2022/05/18 02:41:00;;;;;;;;;4.00;4.00;;;;;23.56;55.52;101298.91;5055911;28;45540;-55
2022/05/18 02:43:26;;;;;;;;;3.40;3.40;;;;;23.42;55.70;101307.91;5055423;28;45676;-52
2022/05/18 02:46:11;;;;;;;;;5.40;4.80;;;;;23.31;55.34;101300.66;5055950;28;45290;-51
2022/05/18 02:48:37;;;;;;;;;3.80;3.80;;;;;23.29;55.82;101316.91;5055828;28;45217;-48
2022/05/18 02:51:03;;;;;;;;;5.00;5.00;;;;;23.21;55.84;101309.09;5056063;28;45348;-52
2022/05/18 02:53:29;;;;;;;;;5.60;4.40;;;;;23.18;55.68;101310.50;5055529;28;46202;-52
2022/05/18 02:56:06;;;;;;;;;5.00;5.00;;;;;23.14;55.82;101315.81;5054407;28;45390;-53
2022/05/18 02:58:36;;;;;;;;;6.40;5.20;;;;;23.05;55.98;101303.50;5055367;28;45490;-47
2022/05/18 03:01:06;;;;;;;;;4.00;3.00;;;;;23.10;55.44;101317.50;5055239;28;45955;-54
2022/05/18 03:03:32;;;;;;;;;6.00;4.00;;;;;23.04;55.49;101304.63;5070779;28;46149;-49
2022/05/18 03:05:57;;;;;;;;;3.00;3.00;;;;;22.86;55.70;101273.34;5055740;28;45483;-49
2022/05/18 03:08:23;;;;;;;;;3.25;3.25;;;;;22.90;55.37;101287.59;5055623;28;45248;-50
2022/05/18 03:10:48;;;;;;;;;3.00;3.00;;;;;22.83;53.70;101287.06;5054411;28;45603;-51
2022/05/18 03:13:14;;;;;;;;;2.25;2.25;;;;;22.68;54.05;101285.94;5055720;28;46741;-49
2022/05/18 03:15:39;;;;;;;;;2.00;2.00;;;;;22.79;53.24;101311.13;5055045;28;45312;-51
2022/05/18 03:18:05;;;;;;;;;1.00;1.00;;;;;22.73;53.21;101321.50;5054433;28;45320;-50
2022/05/18 03:26:02;;;;;;;;;2.60;1.40;;;;;22.60;53.97;101320.06;5059022;28;45412;-54
2022/05/18 03:28:28;;;;;;;;;3.00;1.00;;;;;22.57;54.13;101321.47;5058938;28;45388;-54
2022/05/18 03:30:55;;;;;;;;;1.75;1.75;;;;;22.58;53.99;101328.72;5058901;28;45325;-53
2022/05/18 03:33:22;;;;;;;;;3.20;2.00;;;;;22.64;54.12;101339.94;5058930;28;45670;-52
2022/05/18 03:35:48;;;;;;;;;3.00;3.00;;;;;22.58;54.89;101336.31;5058502;28;45300;-51
2022/05/18 03:38:14;;;;;;;;;3.00;3.00;;;;;22.61;55.31;101341.31;5059031;28;45352;-50
2022/05/18 03:40:40;;;;;;;;;3.80;3.80;;;;;22.56;55.75;101342.16;5058486;28;45366;-50
2022/05/18 03:43:05;;;;;;;;;4.50;4.50;;;;;22.50;55.79;101350.81;5057273;28;46176;-50
2022/05/18 03:45:31;;;;;;;;;3.50;3.50;;;;;22.40;55.37;101352.47;5058490;28;45209;-49
2022/05/18 03:47:57;;;;;;;;;2.00;2.00;;;;;22.40;54.62;101360.84;5043216;28;45594;-50
2022/05/18 03:50:23;;;;;;;;;2.50;2.50;;;;;22.16;54.49;101338.16;5051181;28;45649;-50
2022/05/18 03:52:48;;;;;;;;;1.00;1.00;;;;;22.24;53.94;101360.00;5058374;28;45314;-51
2022/05/18 03:55:14;;;;;;;;;2.00;2.00;;;;;22.23;54.04;101368.66;5058537;28;45377;-54
2022/05/18 03:57:39;;;;;;;;;2.00;2.00;;;;;22.29;54.24;101378.72;5058713;28;45374;-49
2022/05/18 04:00:06;;;;;;;;;2.00;2.00;;;;;22.20;53.97;101389.63;5058219;28;45447;-53
2022/05/18 04:02:32;;;;;;;;;1.60;1.60;;;;;21.92;54.24;101355.44;5058816;28;45716;-48
2022/05/18 04:04:57;;;;;;;;;1.25;1.25;;;;;22.07;54.43;101372.25;5057064;28;45470;-50
2022/05/18 04:07:23;;;;;;;;;2.00;2.00;;;;;22.15;54.28;101381.22;5057321;28;45434;-54
2022/05/18 04:09:48;;;;;;;;;3.00;2.00;;;;;22.21;54.75;101380.13;5057642;28;45406;-49
2022/05/18 04:12:14;;;;;;;;;3.50;2.00;;;;;22.06;54.77;101361.34;5058324;28;45809;-49
2022/05/18 04:14:39;;;;;;;;;3.50;2.50;;;;;22.23;54.74;101393.81;5057261;28;45744;-51
2022/05/18 04:17:05;;;;;;;;;2.50;2.25;;;;;22.23;54.62;101391.84;5040223;28;45387;-48
2022/05/18 04:19:30;;;;;;;;;1.50;1.00;;;;;22.17;54.37;101381.78;5059049;28;45908;-51
2022/05/18 04:21:56;;;;;;;;;1.75;1.75;;;;;22.20;54.25;101396.03;5058294;28;45602;-50
2022/05/18 04:24:21;;;;;;;;;4.00;2.00;;;;;21.91;53.94;101370.50;5056970;28;45320;-53
2022/05/18 04:26:47;;;;;;;;;2.00;2.00;;;;;22.12;53.86;101392.94;5058357;28;45432;-48
2022/05/18 04:29:13;;;;;;;;;3.00;1.00;;;;;22.10;53.51;101393.22;5058102;28;45526;-51
2022/05/18 04:31:38;;;;;;;;;1.00;1.00;;;;;22.04;53.57;101381.19;5057675;28;45722;-53
2022/05/18 04:34:04;;;;;;;;;2.25;2.25;;;;;22.02;53.08;101405.78;5057959;28;45359;-49
2022/05/18 04:36:29;;;;;;;;;1.75;1.00;;;;;21.79;52.98;101359.59;5057095;28;45513;-53
2022/05/18 04:38:55;;;;;;;;;2.00;2.00;;;;;22.01;52.87;101394.84;5058406;28;45301;-49
2022/05/18 04:41:21;;;;;;;;;3.00;3.00;;;;;21.98;52.96;101399.03;5056552;28;46181;-49
2022/05/18 04:43:46;;;;;;;;;2.00;1.00;;;;;21.93;52.69;101393.44;5058210;28;45495;-50
2022/05/18 04:46:11;;;;;;;;;2.75;2.75;;;;;21.97;52.61;101404.91;5057452;28;45481;-49
2022/05/18 04:48:37;;;;;;;;;1.25;1.25;;;;;21.74;52.46;101373.53;5058008;28;45529;-54
2022/05/18 04:51:05;;;;;;;;;2.00;1.00;;;;;21.85;52.38;101405.13;5056054;28;46485;-53
2022/05/18 04:53:32;;;;;;;;;1.60;1.60;;;;;21.89;52.14;101411.88;5057362;28;45251;-52
2022/05/18 04:55:57;;;;;;;;;1.40;1.40;;;;;21.98;52.08;101421.41;5057781;28;45362;-50
2022/05/18 04:58:23;;;;;;;;;1.00;1.00;;;;;22.01;52.26;101423.66;5056256;28;45323;-52
2022/05/18 05:00:58;;;;;;;;;1.00;1.00;;;;;22.03;51.90;101426.16;5056034;28;45737;-53
2022/05/18 05:03:23;;;;;;;;;1.00;1.00;;;;;22.09;51.68;101425.06;5056488;28;45332;-47
2022/05/18 05:05:49;;;;;;;;;1.50;1.00;;;;;22.05;51.77;101433.16;5057730;28;45359;-52
2022/05/18 05:08:14;;;;;;;;;2.00;1.75;;;;;21.98;51.81;101435.38;5040059;28;45362;-51
2022/05/18 05:10:40;;;;;;;;;2.25;2.00;;;;;21.84;51.99;101429.47;5036355;28;46704;-53
2022/05/18 05:13:05;;;;;;;;;2.00;2.00;;;;;21.73;52.05;101434.16;5037412;28;45790;-51
2022/05/18 05:15:31;;;;;;;;;1.00;1.00;;;;;21.75;51.87;101431.91;5037303;28;45413;-51
2022/05/18 05:17:56;;;;;;;;;2.25;1.00;;;;;21.71;51.84;101410.38;5037590;28;45334;-51
2022/05/18 05:20:22;;;;;;;;;0.00;0.00;;;;;21.86;51.74;101445.91;5036917;28;45677;-49
2022/05/18 05:22:47;;;;;;;;;1.25;1.25;;;;;21.84;51.89;101439.78;5037482;28;45491;-50
2022/05/18 05:25:14;;;;;;;;;2.00;2.00;;;;;21.87;51.27;101444.84;5037033;28;45290;-51
2022/05/18 05:27:40;;;;;;;;;1.80;1.80;;;;;21.95;51.67;101452.69;5037563;28;45400;-53
2022/05/18 05:30:06;;;;;;;;;1.00;1.00;;;;;22.00;51.23;101460.25;5037100;28;45589;-48
2022/05/18 05:32:32;;;;;;;;;1.20;1.20;;;;;22.01;51.23;101459.13;5035383;28;46517;-49
2022/05/18 05:34:58;;;;;;;;;0.80;0.80;;;;;21.93;51.48;101454.94;5037428;28;45361;-50
2022/05/18 05:37:23;;;;;;;;;2.00;2.00;;;;;22.01;51.22;101473.09;5035655;28;45656;-55
2022/05/18 05:39:49;;;;;;;;;2.00;1.00;;;;;21.92;50.98;101482.03;5035454;28;46611;-51
2022/05/18 05:42:15;;;;;;;;;2.00;0.25;;;;;21.84;51.20;101468.56;5037027;28;45504;-55
2022/05/18 05:44:40;;;;;;;;;1.00;1.00;;;;;21.78;50.92;101472.44;5035871;28;45440;-51
2022/05/18 05:47:08;;;;;;;;;4.00;3.00;;;;;21.71;51.20;101471.84;5037378;28;45411;-49
2022/05/18 05:49:33;;;;;;;;;1.20;1.20;;;;;21.67;51.34;101479.91;5036266;28;46554;-48
2022/05/18 05:51:59;;;;;;;;;1.00;1.00;;;;;21.66;51.51;101481.84;5036842;28;45305;-53
2022/05/18 05:54:26;;;;;;;;;1.25;1.25;;;;;21.76;51.58;101477.44;5036744;28;45278;-53
2022/05/18 05:56:51;;;;;;;;;1.00;1.00;;;;;21.84;51.14;101479.75;5036907;28;45648;-50
2022/05/18 05:59:19;;;;;;;;;1.25;1.00;;;;;21.84;50.91;101470.50;5051569;28;46444;-53
2022/05/18 06:01:45;;;;;;;;;1.00;1.00;;;;;21.89;50.96;101484.50;5035976;28;45456;-50
2022/05/18 06:04:10;;;;;;;;;3.25;3.00;;;;;21.91;51.17;101488.72;5035140;28;45441;-52
2022/05/18 06:06:37;;;;;;;;;1.75;1.75;;;;;21.81;51.07;101488.66;5039541;28;45527;-53
2022/05/18 06:09:07;;;;;;;;;2.60;1.20;;;;;21.56;51.16;101459.41;5056352;28;45342;-49
2022/05/18 06:11:34;;;;;;;;;1.00;1.00;;;;;21.10;51.07;101382.63;5056275;28;45439;-50
2022/05/18 06:13:59;;;;;;;;;2.00;2.00;;;;;21.82;51.20;101490.31;5056498;28;45335;-54
2022/05/18 06:16:24;;;;;;;;;1.00;1.00;;;;;21.74;50.39;101490.84;5056449;28;45410;-52
2022/05/18 06:18:50;;;;;;;;;3.50;2.00;;;;;21.76;50.78;101495.06;5055875;28;45995;-52
2022/05/18 06:21:16;;;;;;;;;0.00;0.00;;;;;21.83;50.35;101493.97;5056425;28;45403;-50
2022/05/18 06:23:41;;;;;;;;;1.75;1.75;;;;;21.74;50.23;101496.44;5031182;28;45768;-53
2022/05/18 06:26:07;;;;;;;;;2.00;2.00;;;;;21.71;50.42;101499.78;5056302;28;45611;-52
2022/05/18 06:28:36;;;;;;;;;2.00;2.00;;;;;21.75;50.51;101498.97;5055883;28;45577;-50
2022/05/18 06:31:04;;;;;;;;;2.00;1.20;;;;;21.80;50.48;101495.34;5055902;28;45380;-51
2022/05/18 06:33:30;;;;;;;;;2.00;1.00;;;;;21.86;50.27;101505.44;5056044;28;45376;-52
2022/05/18 06:35:55;;;;;;;;;2.75;2.75;;;;;21.82;49.96;101486.72;5056327;28;45573;-55
2022/05/18 06:38:22;;;;;;;;;2.00;2.00;;;;;21.91;50.07;101494.31;5055904;28;45417;-49
2022/05/18 06:43:31;;;;;;;;;2.00;1.80;;;;;21.91;49.97;101490.66;5055855;28;45368;-54
2022/05/18 06:45:57;;;;;;;;;1.75;1.75;;;;;21.98;49.97;101496.84;5056060;28;45626;-55
2022/05/18 06:48:23;;;;;;;;;1.80;1.80;;;;;21.99;49.68;101500.50;5055764;28;46300;-49
2022/05/18 06:50:48;;;;;;;;;1.25;1.00;;;;;22.02;49.60;101495.19;5055799;28;45402;-50
2022/05/18 06:53:14;;;;;;;;;3.00;2.00;;;;;22.01;49.43;101498.25;5055946;28;45320;-51
2022/05/18 06:55:39;;;;;;;;;2.75;1.50;;;;;21.97;49.53;101488.75;5056095;28;45504;-53
2022/05/18 06:58:05;;;;;;;;;1.00;1.00;;;;;22.05;49.49;101500.22;5055103;28;46000;-51
2022/05/18 07:00:30;;;;;;;;;2.50;0.25;;;;;22.03;49.65;101487.63;5055479;28;45305;-50
2022/05/18 07:02:56;;;;;;;;;1.00;1.00;;;;;21.99;49.19;101470.56;5054721;28;45295;-53
2022/05/18 07:05:22;;;;;;;;;1.00;1.00;;;;;21.82;49.36;101437.25;5054906;28;45379;-52
2022/05/18 07:07:47;;;;;;;;;1.75;1.75;;;;;22.21;49.39;101491.94;5055867;28;45380;-57
2022/05/18 07:10:13;;;;;;;;;5.25;2.25;;;;;22.10;49.11;101476.22;5051396;28;45393;-50
2022/05/18 07:12:39;;;;;;;;;0.25;0.25;;;;;22.23;49.12;101494.44;5058103;28;45336;-59
2022/05/18 07:15:05;;;;;;;;;1.40;1.40;;;;;22.23;48.98;101492.50;5055093;28;45274;-51
2022/05/18 07:17:31;;;;;;;;;2.80;1.40;;;;;21.96;49.30;101448.78;5069559;28;45732;-48
2022/05/18 07:19:57;;;;;;;;;2.00;2.00;;;;;22.28;49.17;101484.13;5027472;28;45439;-48
2022/05/18 07:22:22;;;;;;;;;2.25;2.00;;;;;22.11;49.07;101456.41;5033607;28;45512;-47
2022/05/18 07:24:49;;;;;;;;;3.50;1.00;;;;;22.36;49.03;101488.34;5050045;28;45432;-51
2022/05/18 07:27:15;;;;;;;;;1.00;1.00;;;;;22.18;49.24;101447.75;5027079;28;46053;-53
2022/05/18 07:29:41;;;;;;;;;2.00;1.50;;;;;22.45;48.56;101492.31;5051860;28;45857;-53
2022/05/18 07:32:12;;;;;;;;;1.75;1.75;;;;;22.53;48.41;101492.91;5051994;28;45552;-52
2022/05/18 07:34:38;;;;;;;;;4.00;2.40;;;;;22.49;49.07;101484.22;5055157;28;45413;-49
2022/05/18 07:37:04;;;;;;;;;4.40;3.80;;;;;22.50;48.92;101496.25;5055031;28;45514;-49
2022/05/18 07:39:30;;;;;;;;;6.00;5.20;;;;;22.48;49.05;101496.50;5021755;28;45899;-50
2022/05/18 07:41:57;;;;;;;;;4.00;3.60;;;;;22.56;48.93;101496.00;5029496;28;45497;-54
2022/05/18 07:44:23;;;;;;;;;4.40;2.40;;;;;22.65;48.97;101499.13;5043182;28;45450;-54
2022/05/18 07:46:48;;;;;;;;;5.80;5.80;;;;;22.73;48.51;101498.56;5045084;28;45840;-51
2022/05/18 07:49:14;;;;;;;;;3.50;3.50;;;;;22.70;48.60;101496.34;5048088;28;45717;-53
2022/05/18 07:51:40;;;;;;;;;2.00;2.00;;;;;22.76;48.50;101499.97;5048499;28;45704;-47
2022/05/18 07:54:06;;;;;;;;;5.50;5.50;;;;;22.80;48.32;101484.31;5030277;28;45461;-48
2022/05/18 07:56:31;;;;;;;;;2.00;2.00;;;;;22.85;48.04;101481.50;5047607;28;46721;-50
2022/05/18 07:58:57;;;;;;;;;4.75;2.50;;;;;22.80;48.53;101486.25;5063362;28;45470;-51
2022/05/18 08:01:22;;;;;;;;;4.00;2.50;;;;;22.82;48.58;101464.44;5047375;27;45437;-51
2022/05/18 08:03:48;;;;;;;;;3.00;1.75;;;;;22.96;48.38;101492.72;5044726;28;45881;-50
2022/05/18 08:06:14;;;;;;;;;2.75;2.75;;;;;22.85;48.22;101481.50;5048856;28;46953;-50
2022/05/18 08:08:39;;;;;;;;;2.00;2.00;;;;;22.99;48.34;101492.16;5053941;28;45381;-49
2022/05/18 08:16:34;;;;;;;;;5.80;2.60;;;;;23.25;48.09;101493.03;5074358;28;45936;-51
2022/05/18 08:19:00;;;;;;;;;3.40;3.20;;;;;23.26;47.98;101496.69;5074336;27;45443;-52
2022/05/18 08:21:26;;;;;;;;;1.75;1.75;;;;;23.27;48.20;101498.34;5067165;27;45412;-54
2022/05/18 08:23:52;;;;;;;;;3.00;2.00;;;;;23.13;47.88;101453.28;5074377;27;45819;-48
2022/05/18 08:26:17;;;;;;;;;4.60;3.60;;;;;23.32;47.87;101467.56;5073495;27;46249;-53
2022/05/18 08:28:43;;;;;;;;;2.75;2.00;;;;;23.29;48.25;101462.50;5073416;27;45537;-49
2022/05/18 08:31:09;;;;;;;;;4.00;3.00;;;;;23.21;47.92;101441.50;5074523;27;45651;-49
2022/05/18 08:33:34;;;;;;;;;2.00;2.00;;;;;23.55;47.77;101480.13;5072618;27;45736;-51
2022/05/18 08:36:04;;;;;;;;;4.50;3.00;;;;;23.64;47.78;101483.22;5074264;27;46394;-55
2022/05/18 08:38:30;;;;;;;;;3.80;3.80;;;;;23.53;48.29;101461.97;5072587;28;45894;-50
2022/05/18 08:41:01;;;;;;;;;2.25;2.25;;;;;23.67;47.94;101479.00;5062386;28;45410;-49
2022/05/18 08:43:31;;;;;;;;;3.20;2.60;;;;;23.68;48.09;101475.94;5055916;28;45938;-50
2022/05/18 08:46:06;;;;;;;;;5.00;3.00;;;;;23.55;47.67;101454.09;5047298;28;46221;-54
2022/05/18 08:48:45;;;;;;;;;4.00;3.00;;;;;23.83;47.81;101477.00;5052443;28;45765;-51
2022/05/18 08:51:23;;;;;;;;;6.00;4.40;;;;;23.75;47.84;101455.19;5052740;28;45839;-49
2022/05/18 08:54:01;;;;;;;;;6.20;4.60;;;;;23.80;47.54;101472.81;5035665;28;45507;-49
2022/05/18 08:56:29;;;;;;;;;4.00;4.00;;;;;23.58;47.86;101444.28;5053084;28;45831;-48
2022/05/18 08:58:55;;;;;;;;;4.00;4.00;;;;;23.83;47.60;101472.25;5061145;28;45827;-47
2022/05/18 09:01:35;;;;;;;;;4.00;3.75;;;;;23.95;47.63;101465.47;5064145;28;45585;-47
2022/05/18 09:04:06;;;;;;;;;5.60;4.80;;;;;24.00;47.42;101459.84;5053005;28;45452;-46
2022/05/18 09:06:37;;;;;;;;;2.40;2.40;;;;;24.11;47.80;101465.47;5052005;28;45862;-51
2022/05/18 09:11:55;;;;;;;;;2.60;2.60;;;;;24.28;47.18;101462.31;5068694;28;45411;-56
2022/05/18 09:14:21;;;;;;;;;5.50;5.25;;;;;24.29;47.47;101458.38;5021422;27;46092;-56
2022/05/18 09:16:54;;;;;;;;;3.20;3.20;;;;;24.21;47.62;101451.38;5051408;28;46125;-53
2022/05/18 09:19:39;;;;;;;;;4.80;3.60;;;;;24.19;47.54;101448.88;5050917;28;45792;-48
2022/05/18 09:22:29;;;;;;;;;3.00;3.00;;;;;24.24;47.22;101459.22;5052141;28;45496;-52
2022/05/18 09:25:17;;;;;;;;;2.60;2.60;;;;;24.20;47.52;101458.13;5071641;28;45763;-48
2022/05/18 09:28:18;;;;;;;;;3.20;3.20;;;;;24.13;47.89;101460.41;5072040;28;45510;-51
2022/05/18 09:31:09;;;;;;;;;5.20;4.00;;;;;24.12;48.18;101459.53;5072825;27;45850;-49
2022/05/18 09:33:37;;;;;;;;;4.80;4.00;;;;;24.23;47.57;101460.38;5070887;28;45875;-57
2022/05/18 09:36:21;;;;;;;;;4.00;3.00;;;;;24.33;47.74;101456.66;5068707;27;45364;-58
2022/05/18 09:39:08;;;;;;;;;2.40;2.40;;;;;24.42;47.51;101446.50;5056115;28;46167;-53
2022/05/18 09:42:04;;;;;;;;;6.20;4.40;;;;;24.48;47.22;101448.16;5053873;28;45371;-46
2022/05/18 09:44:39;;;;;;;;;4.00;2.80;;;;;24.62;47.43;101447.50;5053525;28;45576;-53
2022/05/18 09:47:04;;;;;;;;;4.00;4.00;;;;;24.54;46.93;101431.31;5057112;28;45143;-54
2022/05/18 09:49:36;;;;;;;;;6.00;5.00;;;;;24.66;47.11;101444.97;5056051;28;46585;-50
2022/05/18 09:52:02;;;;;;;;;6.00;5.20;;;;;24.66;47.12;101440.19;5056489;28;45277;-51
2022/05/18 09:54:29;;;;;;;;;6.60;4.80;;;;;24.33;46.95;101386.56;5055555;28;45512;-50
2022/05/18 09:57:16;;;;;;;;;1.20;1.20;;;;;24.54;47.36;101398.47;5055826;28;45635;-52
2022/05/18 09:59:47;;;;;;;;;6.20;4.00;;;;;24.81;46.40;101433.66;5054996;28;45768;-54
2022/05/18 10:07:49;;;;;;;;;3.60;3.60;;;;;25.06;46.56;101428.16;5056660;28;45243;-50
2022/05/18 10:10:19;;;;;;;;;4.40;4.40;;;;;25.14;46.26;101422.72;5055987;28;46328;-51
2022/05/18 10:13:06;;;;;;;;;5.20;5.20;;;;;25.12;46.00;101398.84;5055399;28;45479;-52
2022/05/18 10:15:43;;;;;;;;;3.20;3.20;;;;;25.27;46.30;101412.78;5055682;28;45425;-49
2022/05/18 10:18:13;;;;;;;;;3.60;3.60;;;;;25.16;45.86;101394.34;5055606;28;45581;-54
2022/05/18 10:20:42;;;;;;;;;4.00;3.80;;;;;25.41;45.83;101412.06;5028855;28;45941;-53
2022/05/18 10:23:32;;;;;;;;;7.40;4.60;;;;;25.49;45.39;101404.97;5046271;28;45448;-54
2022/05/18 10:25:58;;;;;;;;;3.80;2.00;;;;;25.57;45.30;101402.34;5075841;28;45332;-52
2022/05/18 10:28:25;;;;;;;;;3.50;3.50;;;;;25.68;45.41;101393.81;5076605;27;45558;-52
2022/05/18 10:30:54;;;;;;;;;3.20;3.20;;;;;25.78;44.93;101396.50;5074202;28;46358;-52
2022/05/18 10:33:31;;;;;;;;;2.80;2.80;;;;;25.74;44.52;101380.53;5075614;28;45383;-53
2022/05/18 10:35:57;;;;;;;;;4.20;2.60;;;;;25.87;44.85;101390.22;5076655;27;45368;-49
2022/05/18 10:38:33;;;;;;;;;4.25;4.25;;;;;25.77;44.23;101366.72;5075040;28;45381;-51
2022/05/18 10:41:04;;;;;;;;;4.40;4.00;;;;;26.01;43.45;101393.13;5075459;27;45293;-55
2022/05/18 10:43:33;;;;;;;;;3.00;3.00;;;;;26.04;43.62;101384.91;5075596;27;45369;-51
2022/05/18 10:46:10;;;;;;;;;2.80;2.80;;;;;26.08;43.86;101376.72;5076175;27;45357;-55
2022/05/18 10:48:35;;;;;;;;;3.40;2.00;;;;;25.98;43.22;101356.03;5075055;28;46019;-61
2022/05/18 10:51:09;;;;;;;;;4.00;3.00;;;;;26.16;42.91;101386.44;5057784;28;45424;-56
2022/05/18 10:53:37;;;;;;;;;2.20;2.20;;;;;26.17;42.60;101372.09;5058853;28;45665;-54
2022/05/18 10:56:07;;;;;;;;;2.60;2.60;;;;;26.19;42.57;101372.63;5075977;27;45419;-63
2022/05/18 10:59:13;;;;;;;;;3.20;3.20;;;;;26.30;42.78;101367.69;5075786;27;45544;-52
2022/05/18 11:01:43;;;;;;;;;3.00;3.00;;;;;26.39;42.18;101370.66;5061403;27;45443;-52
2022/05/18 11:04:15;;;;;;;;;5.00;4.00;;;;;26.26;42.17;101335.72;5074977;28;45385;-51
2022/05/18 11:06:40;;;;;;;;;3.20;3.20;;;;;26.41;42.10;101364.75;5074533;28;45565;-54
2022/05/18 11:09:17;;;;;;;;;2.50;2.50;;;;;26.41;42.11;101371.19;5059563;27;45382;-49
2022/05/18 11:11:46;;;;;;;;;3.00;3.00;;;;;26.37;41.70;101365.34;5054139;28;46538;-52
2022/05/18 11:14:50;;;;;;;;;3.00;3.00;;;;;26.52;41.22;101361.47;5038106;28;45995;-53
2022/05/18 11:17:22;;;;;;;;;4.80;4.00;;;;;26.59;41.22;101363.91;5046323;28;45305;-52
2022/05/18 11:20:12;;;;;;;;;4.20;4.20;;;;;26.60;41.93;101368.38;5055197;28;46003;-50
2022/05/18 11:23:00;;;;;;;;;3.00;3.00;;;;;26.57;42.06;101334.38;5070794;28;47490;-50
2022/05/18 11:25:43;;;;;;;;;3.40;3.40;;;;;26.77;41.21;101361.34;5047130;28;45440;-54
2022/05/18 11:28:24;;;;;;;;;4.00;4.00;;;;;26.87;41.39;101366.81;5054517;28;45369;-59
2022/05/18 11:31:08;;;;;;;;;2.80;2.80;;;;;26.97;40.40;101367.78;5055426;28;45313;-50
2022/05/18 11:33:46;;;;;;;;;4.20;4.20;;;;;27.00;40.80;101359.56;5031804;28;45482;-54
2022/05/18 11:36:46;;;;;;;;;3.80;3.80;;;;;27.11;41.18;101357.38;5055394;28;45431;-54
2022/05/18 11:39:23;;;;;;;;;5.60;4.80;;;;;27.16;40.90;101357.28;5055546;28;45325;-55
2022/05/18 11:42:11;;;;;;;;;4.20;3.20;;;;;27.18;39.76;101351.34;5055673;28;45421;-52
2022/05/18 11:44:48;;;;;;;;;2.80;2.80;;;;;26.68;39.42;101251.41;5058746;28;46242;-55
2022/05/18 11:47:23;;;;;;;;;2.00;2.00;;;;;27.35;39.29;101336.66;5058882;28;45276;-53
2022/05/18 11:50:18;;;;;;;;;2.20;2.20;;;;;27.42;38.68;101337.06;5057473;28;45395;-53
2022/05/18 11:52:56;;;;;;;;;2.80;2.80;;;;;27.54;38.05;101328.06;5057892;28;45350;-53
2022/05/18 11:55:31;;;;;;;;;3.00;3.00;;;;;27.68;38.53;101339.38;5058432;28;45349;-52